createdAt,value
2018-07-04T00:01:14.295Z,6.33
2018-07-04T00:03:54.205Z,6.27
2018-07-04T00:06:33.874Z,6.37
2018-07-04T00:09:13.590Z,5.83
2018-07-04T00:11:53.503Z,6.33
2018-07-04T00:14:33.432Z,7.93
2018-07-04T00:17:13.282Z,5.33
2018-07-04T00:19:53.129Z,6.17
2018-07-04T00:22:33.007Z,5.83
2018-07-04T00:25:12.862Z,7.40
2018-07-04T00:27:52.696Z,7.60
2018-07-04T00:30:33.476Z,6.60
2018-07-04T00:33:13.994Z,6.17
2018-07-04T00:35:53.850Z,6.27
2018-07-04T00:38:33.738Z,5.83
2018-07-04T00:41:13.469Z,7.03
2018-07-04T00:43:53.442Z,7.17
2018-07-04T00:46:33.477Z,8.60
2018-07-04T00:49:13.277Z,5.70
2018-07-04T00:51:53.148Z,7.77
2018-07-04T00:54:32.934Z,6.70
2018-07-04T00:57:12.743Z,7.37
2018-07-04T00:59:52.708Z,6.97
2018-07-04T01:02:32.812Z,6.03
2018-07-04T01:05:12.673Z,6.17
2018-07-04T01:07:52.438Z,6.13
2018-07-04T01:10:32.292Z,5.80
2018-07-04T01:13:12.174Z,7.47
2018-07-04T01:15:51.900Z,5.87
2018-07-04T01:18:31.657Z,6.20
2018-07-04T01:21:12.396Z,6.50
2018-07-04T01:23:52.700Z,6.70
2018-07-04T01:26:33.298Z,9.93
2018-07-04T01:29:13.295Z,6.70
2018-07-04T01:31:53.196Z,6.07
2018-07-04T01:34:33.100Z,6.80
2018-07-04T01:37:12.797Z,5.77
2018-07-04T01:39:52.533Z,6.53
2018-07-04T01:42:32.342Z,6.57
2018-07-04T01:45:12.112Z,6.37
2018-07-04T01:47:51.762Z,6.90
2018-07-04T01:50:32.401Z,7.43
2018-07-04T01:53:12.249Z,7.17
2018-07-04T01:55:52.037Z,6.67
2018-07-04T01:58:31.821Z,8.10
2018-07-04T02:01:11.764Z,7.97
2018-07-04T02:03:51.803Z,6.37
2018-07-04T02:06:31.600Z,6.97
2018-07-04T02:09:11.381Z,6.50
2018-07-04T02:11:51.413Z,6.80
2018-07-04T02:14:31.213Z,7.27
2018-07-04T02:17:11.105Z,8.97
2018-07-04T02:19:51.007Z,9.83
2018-07-04T02:22:30.956Z,6.10
2018-07-04T02:25:10.717Z,6.90
2018-07-04T02:27:50.434Z,6.27
2018-07-04T02:30:31.405Z,6.30
2018-07-04T02:33:11.169Z,7.00
2018-07-04T02:35:51.111Z,6.80
2018-07-04T02:38:31.117Z,8.97
2018-07-04T02:41:10.819Z,6.10
2018-07-04T02:43:50.501Z,6.67
2018-07-04T02:46:35.729Z,6.67
2018-07-04T02:49:15.449Z,5.87
2018-07-04T02:51:55.481Z,5.60
2018-07-04T02:54:29.698Z,7.10
2018-07-04T02:57:09.635Z,5.73
2018-07-04T02:59:49.549Z,6.20
2018-07-04T03:02:29.259Z,6.20
2018-07-04T03:05:09.077Z,7.40
2018-07-04T03:07:48.933Z,6.60
2018-07-04T03:10:29.736Z,6.40
2018-07-04T03:13:09.624Z,6.80
2018-07-04T03:15:49.342Z,6.23
2018-07-04T03:18:29.075Z,6.23
2018-07-04T03:21:08.885Z,6.07
2018-07-04T03:23:48.803Z,6.90
2018-07-04T03:26:28.698Z,7.03
2018-07-04T03:29:08.552Z,6.23
2018-07-04T03:31:48.485Z,7.27
2018-07-04T03:34:28.251Z,6.20
2018-07-04T03:37:08.168Z,6.23
2018-07-04T03:39:47.924Z,8.07
2018-07-04T03:42:27.907Z,6.73
2018-07-04T04:31:12.119Z,6.90
2018-07-04T04:33:51.889Z,6.83
2018-07-04T04:36:31.809Z,7.90
2018-07-04T04:39:11.654Z,7.27
2018-07-04T04:41:51.593Z,8.00
2018-07-04T04:44:31.556Z,6.70
2018-07-04T04:47:11.584Z,7.70
2018-07-04T04:49:51.332Z,6.50
2018-07-04T04:52:31.185Z,6.37
2018-07-04T04:55:11.261Z,6.67
2018-07-04T04:57:51.048Z,6.10
2018-07-04T05:00:31.987Z,5.67
2018-07-04T05:03:11.875Z,5.40
2018-07-04T05:05:51.656Z,6.53
2018-07-04T05:08:32.029Z,7.10
2018-07-04T05:11:11.903Z,6.17
2018-07-04T05:13:51.967Z,7.23
2018-07-04T05:16:31.766Z,7.63
2018-07-04T05:19:11.581Z,6.77
2018-07-04T05:21:51.307Z,8.30
2018-07-04T05:24:30.992Z,8.33
2018-07-04T05:27:11.206Z,8.70
2018-07-04T05:29:51.054Z,8.40
2018-07-04T05:32:30.843Z,6.77
2018-07-04T05:35:10.634Z,6.70
2018-07-04T05:37:50.500Z,6.57
2018-07-04T05:40:30.477Z,6.00
2018-07-04T05:43:10.321Z,6.47
2018-07-04T05:45:50.077Z,6.47
2018-07-04T05:48:29.776Z,6.50
2018-07-04T05:51:09.457Z,7.03
2018-07-04T05:53:49.130Z,7.53
2018-07-04T05:56:28.908Z,8.60
2018-07-04T05:59:08.690Z,6.70
2018-07-04T06:01:48.535Z,7.47
2018-07-04T06:04:28.358Z,7.33
2018-07-04T06:07:08.341Z,8.33
2018-07-04T06:09:48.309Z,7.13
2018-07-04T06:12:28.289Z,6.93
2018-07-04T06:15:08.434Z,6.50
2018-07-04T06:17:48.502Z,6.30
2018-07-04T06:20:28.409Z,7.77
2018-07-04T06:23:08.797Z,6.63
2018-07-04T06:25:48.673Z,7.10
2018-07-04T06:28:28.912Z,35.63
2018-07-04T06:31:08.669Z,22.97
2018-07-04T06:33:48.596Z,14.50
2018-07-04T06:36:28.587Z,11.77
2018-07-04T06:38:55.973Z,18.97
2018-07-04T06:41:23.583Z,8.57
2018-07-04T06:43:50.960Z,9.00
2018-07-04T06:46:18.302Z,10.07
2018-07-04T06:48:45.692Z,7.10
2018-07-04T06:51:13.201Z,8.43
2018-07-04T06:53:40.543Z,6.87
2018-07-04T06:56:07.897Z,79.20
2018-07-04T06:58:35.271Z,70.33
2018-07-04T07:01:02.658Z,38.13
2018-07-04T07:03:42.420Z,12.77
2018-07-04T07:06:22.065Z,13.67
2018-07-04T07:09:01.920Z,9.93
2018-07-04T07:11:41.850Z,9.50
2018-07-04T07:14:21.703Z,10.50
2018-07-04T07:17:01.576Z,7.90
2018-07-04T07:19:42.080Z,7.67
2018-07-04T07:22:21.808Z,7.67
2018-07-04T07:25:01.692Z,8.90
2018-07-04T07:27:42.373Z,8.40
2018-07-04T07:30:22.237Z,10.27
2018-07-04T07:33:02.067Z,9.47
2018-07-04T07:35:41.804Z,8.60
2018-07-04T07:38:21.555Z,9.87
2018-07-04T07:41:02.336Z,7.70
2018-07-04T07:43:42.042Z,8.73
2018-07-04T07:46:22.112Z,7.80
2018-07-04T07:49:01.937Z,10.17
2018-07-04T07:51:35.717Z,8.83
2018-07-04T07:54:15.425Z,7.10
2018-07-04T07:56:55.255Z,6.60
2018-07-04T07:59:35.067Z,6.77
2018-07-04T08:02:14.855Z,8.40
2018-07-04T08:04:54.605Z,6.53
2018-07-04T08:07:34.356Z,9.13
2018-07-04T08:10:14.155Z,7.27
2018-07-04T08:12:53.939Z,6.10
2018-07-04T08:15:33.642Z,7.57
2018-07-04T08:18:13.586Z,7.57
2018-07-04T08:20:53.462Z,6.97
2018-07-04T08:23:33.056Z,6.90
2018-07-04T08:26:12.937Z,8.00
2018-07-04T08:28:52.869Z,6.13
2018-07-04T08:31:32.862Z,6.03
2018-07-04T08:34:12.761Z,6.57
2018-07-04T08:36:52.550Z,7.10
2018-07-04T08:39:32.124Z,6.33
2018-07-04T08:42:12.024Z,6.40
2018-07-04T08:44:51.866Z,6.30
2018-07-04T08:47:31.683Z,8.07
2018-07-04T08:50:11.468Z,8.03
2018-07-04T08:52:51.481Z,5.60
2018-07-04T08:55:31.479Z,6.50
2018-07-04T08:58:11.309Z,6.10
2018-07-04T09:00:51.332Z,6.97
2018-07-04T09:03:31.053Z,21.57
2018-07-04T09:06:10.806Z,9.10
2018-07-04T09:08:50.607Z,7.07
2018-07-04T09:11:30.388Z,8.00
2018-07-04T09:14:10.156Z,8.67
2018-07-04T09:16:50.019Z,7.87
2018-07-04T09:19:29.868Z,6.67
2018-07-04T09:22:09.565Z,6.27
2018-07-04T09:24:49.427Z,6.03
2018-07-04T09:27:29.929Z,6.50
2018-07-04T09:30:09.752Z,7.33
2018-07-04T09:32:49.685Z,7.10
2018-07-04T09:35:29.659Z,7.33
2018-07-04T09:38:09.715Z,6.57
2018-07-04T09:40:50.503Z,6.97
2018-07-04T09:43:30.233Z,6.93
2018-07-04T09:46:10.182Z,6.87
2018-07-04T09:48:50.208Z,6.83
2018-07-04T09:51:30.051Z,6.57
2018-07-04T09:54:10.145Z,8.27
2018-07-04T09:56:50.072Z,9.90
2018-07-04T09:59:29.902Z,7.60
2018-07-04T10:02:09.881Z,9.47
2018-07-04T10:04:49.718Z,8.47
2018-07-04T10:07:29.549Z,5.90
2018-07-04T10:10:09.853Z,6.10
2018-07-04T10:12:49.758Z,5.73
2018-07-04T10:15:29.709Z,7.20
2018-07-04T10:18:09.930Z,5.67
2018-07-04T10:20:49.595Z,6.27
2018-07-04T10:23:29.550Z,10.50
2018-07-04T10:26:10.593Z,9.13
2018-07-04T10:28:50.535Z,12.60
2018-07-04T10:31:30.481Z,8.23
2018-07-04T10:34:10.285Z,8.70
2018-07-04T10:36:50.074Z,7.77
2018-07-04T10:39:29.824Z,6.83
2018-07-04T10:42:10.337Z,11.27
2018-07-04T10:44:50.154Z,7.20
2018-07-04T10:47:30.094Z,5.60
2018-07-04T10:50:10.006Z,6.23
2018-07-04T10:52:49.815Z,5.70
2018-07-04T10:55:29.650Z,5.90
2018-07-04T10:58:09.585Z,5.90
2018-07-04T11:00:50.310Z,7.07
2018-07-04T11:03:30.097Z,8.33
2018-07-04T11:06:10.030Z,6.57
2018-07-04T11:08:49.698Z,6.47
2018-07-04T11:11:29.531Z,6.53
2018-07-04T11:14:09.619Z,6.17
2018-07-04T11:16:49.464Z,6.60
2018-07-04T11:19:29.486Z,6.40
2018-07-04T11:22:09.245Z,6.33
2018-07-04T11:24:49.080Z,13.57
2018-07-04T11:27:29.028Z,6.33
2018-07-04T11:30:09.006Z,6.20
2018-07-04T11:32:48.769Z,5.47
2018-07-04T11:35:28.415Z,6.87
2018-07-04T11:38:08.098Z,6.50
2018-07-04T11:40:48.848Z,5.63
2018-07-04T11:43:28.845Z,6.30
2018-07-04T11:46:00.153Z,5.43
2018-07-04T11:48:27.932Z,7.67
2018-07-04T11:50:56.023Z,8.40
2018-07-04T11:53:23.429Z,6.20
2018-07-04T11:55:50.803Z,4.57
2018-07-04T11:58:18.185Z,7.97
2018-07-04T12:00:45.887Z,17.17
2018-07-04T12:03:17.165Z,9.83
2018-07-04T12:05:57.635Z,15.07
2018-07-04T12:08:25.001Z,6.17
2018-07-04T12:10:53.800Z,10.57
2018-07-04T12:13:22.559Z,6.90
2018-07-04T12:15:50.789Z,6.97
2018-07-04T12:18:18.155Z,14.47
2018-07-04T12:20:46.174Z,8.60
2018-07-04T12:23:13.964Z,8.03
2018-07-04T12:25:42.159Z,6.20
2018-07-04T12:28:09.477Z,7.33
2018-07-04T12:30:37.863Z,6.83
2018-07-04T12:33:05.190Z,5.37
2018-07-04T12:35:32.544Z,6.37
2018-07-04T12:37:59.907Z,4.20
2018-07-04T12:40:28.286Z,5.13
2018-07-04T12:42:55.769Z,6.53
2018-07-04T12:45:23.144Z,4.43
2018-07-04T12:47:50.514Z,5.37
2018-07-04T12:50:28.313Z,5.10
2018-07-04T12:52:55.828Z,4.90
2018-07-04T12:55:40.117Z,5.67
2018-07-04T12:58:20.645Z,5.93
2018-07-04T13:01:01.043Z,5.40
2018-07-04T13:03:40.950Z,4.97
2018-07-04T13:06:20.644Z,11.33
2018-07-04T13:09:01.068Z,12.13
2018-07-04T13:11:40.848Z,6.73
2018-07-04T13:14:20.560Z,6.23
2018-07-04T13:17:00.495Z,6.97
2018-07-04T13:19:40.330Z,6.20
2018-07-04T13:22:20.290Z,6.03
2018-07-04T13:25:00.128Z,7.83
2018-07-04T13:27:40.049Z,6.13
2018-07-04T13:30:20.950Z,8.27
2018-07-04T13:32:54.792Z,6.17
2018-07-04T13:35:34.680Z,8.67
2018-07-04T13:38:14.441Z,7.43
2018-07-04T13:40:54.418Z,6.90
2018-07-04T13:43:34.439Z,5.60
2018-07-04T13:46:14.289Z,5.60
2018-07-04T13:48:54.129Z,6.67
2018-07-04T13:51:33.986Z,6.27
2018-07-04T13:54:13.941Z,6.97
2018-07-04T13:56:53.592Z,8.07
2018-07-04T13:59:33.581Z,7.47
2018-07-04T14:02:13.248Z,6.73
2018-07-04T14:04:53.107Z,7.37
2018-07-04T14:07:32.869Z,8.20
2018-07-04T14:10:12.747Z,6.73
2018-07-04T14:12:52.512Z,6.70
2018-07-04T14:15:32.418Z,7.53
2018-07-04T14:18:12.168Z,6.93
2018-07-04T14:20:51.957Z,6.57
2018-07-04T14:23:31.795Z,7.97
2018-07-04T14:26:11.296Z,5.93
2018-07-04T14:28:51.011Z,5.80
2018-07-04T14:31:30.768Z,6.10
2018-07-04T14:34:10.745Z,7.70
2018-07-04T14:36:50.614Z,6.43
2018-07-04T14:39:30.434Z,8.23
2018-07-04T14:42:10.253Z,6.43
2018-07-04T14:44:50.212Z,6.93
2018-07-04T14:47:30.201Z,7.60
2018-07-04T14:50:10.148Z,5.87
2018-07-04T14:52:49.989Z,4.30
2018-07-04T14:55:29.770Z,4.07
2018-07-04T16:20:19.186Z,8.10
2018-07-04T16:22:59.121Z,5.23
2018-07-04T16:25:38.745Z,4.67
2018-07-04T16:28:18.449Z,5.03
2018-07-04T16:30:58.430Z,4.63
2018-07-04T16:33:38.430Z,8.13
2018-07-04T16:36:18.242Z,3.90
2018-07-04T16:38:58.004Z,7.07
2018-07-04T16:41:37.735Z,18.17
2018-07-04T16:44:17.408Z,20.73
2018-07-04T16:46:57.137Z,28.03
2018-07-04T16:49:36.860Z,10.43
2018-07-04T16:52:16.612Z,10.30
2018-07-04T16:54:56.549Z,5.67
2018-07-04T16:57:36.432Z,4.33
2018-07-04T17:00:16.266Z,8.30
2018-07-04T17:02:56.042Z,9.27
2018-07-04T17:05:35.846Z,6.33
2018-07-04T17:08:15.884Z,4.03
2018-07-04T17:10:55.761Z,6.00
2018-07-04T17:13:35.501Z,6.27
2018-07-04T17:16:15.221Z,5.00
2018-07-04T17:18:48.896Z,14.43
2018-07-04T17:21:28.672Z,8.23
2018-07-04T17:24:09.961Z,9.97
2018-07-04T17:26:49.682Z,19.10
2018-07-04T17:29:30.381Z,17.93
2018-07-04T17:32:10.046Z,12.20
2018-07-04T17:34:50.067Z,7.27
2018-07-04T17:37:29.864Z,5.70
2018-07-04T17:40:09.687Z,5.47
2018-07-04T17:42:49.488Z,5.63
2018-07-04T17:45:29.246Z,4.63
2018-07-04T17:48:08.943Z,4.87
2018-07-04T17:50:48.738Z,4.97
2018-07-04T17:53:28.525Z,5.23
2018-07-04T17:56:08.500Z,4.77
2018-07-04T17:58:42.193Z,6.33
2018-07-04T18:01:22.361Z,4.83
2018-07-04T18:03:56.009Z,5.00
2018-07-04T18:06:35.716Z,5.00
2018-07-04T18:09:15.685Z,4.87
2018-07-04T18:11:55.529Z,7.00
2018-07-04T18:14:35.461Z,5.10
2018-07-04T18:17:15.165Z,5.90
2018-07-04T18:19:54.851Z,6.77
2018-07-04T18:22:34.508Z,5.13
2018-07-04T18:25:14.314Z,5.47
2018-07-04T18:27:54.029Z,5.10
2018-07-04T18:30:33.807Z,5.87
2018-07-04T18:33:13.686Z,5.53
2018-07-04T18:35:53.522Z,5.83
2018-07-04T18:38:33.327Z,6.47
2018-07-04T18:41:13.034Z,5.37
2018-07-04T18:43:52.653Z,5.17
2018-07-04T18:46:32.569Z,6.07
2018-07-04T18:49:12.612Z,6.40
2018-07-04T18:51:52.591Z,5.20
2018-07-04T18:54:32.219Z,5.27
2018-07-04T18:57:12.681Z,5.00
2018-07-04T18:59:52.459Z,5.03
2018-07-04T19:02:32.208Z,5.77
2018-07-04T19:05:12.758Z,5.30
2018-07-04T19:07:52.542Z,5.00
2018-07-04T19:10:32.466Z,5.17
2018-07-04T19:13:12.179Z,5.13
2018-07-04T19:15:51.901Z,5.17
2018-07-04T19:18:31.767Z,4.97
2018-07-04T19:21:11.875Z,6.20
2018-07-04T19:23:51.665Z,5.13
2018-07-04T19:26:31.361Z,5.10
2018-07-04T19:29:11.369Z,6.17
2018-07-04T19:31:51.262Z,4.73
2018-07-04T19:34:31.073Z,4.30
2018-07-04T19:37:10.841Z,4.43
2018-07-04T19:39:50.736Z,4.63
2018-07-04T19:42:30.554Z,4.77
2018-07-04T19:45:10.515Z,4.40
2018-07-04T19:47:50.253Z,4.73
2018-07-04T19:50:30.015Z,4.47
2018-07-04T19:53:09.643Z,5.00
2018-07-04T19:55:49.337Z,5.43
2018-07-04T19:58:29.055Z,4.50
2018-07-04T20:01:08.967Z,6.27
2018-07-04T20:03:48.611Z,3.87
2018-07-04T20:06:28.458Z,4.80
2018-07-04T20:09:02.207Z,4.60
2018-07-04T20:11:42.303Z,5.90
2018-07-04T20:14:22.259Z,4.87
2018-07-04T20:16:55.970Z,4.27
2018-07-04T20:19:35.899Z,4.40
2018-07-04T20:22:15.551Z,3.80
2018-07-04T20:24:55.309Z,3.77
2018-07-04T20:27:35.310Z,5.07
2018-07-04T20:30:15.206Z,3.50
2018-07-04T20:32:54.856Z,3.93
2018-07-04T20:35:34.846Z,4.23
2018-07-04T20:38:14.747Z,3.90
2018-07-04T20:40:54.583Z,3.97
2018-07-04T20:43:34.523Z,4.03
2018-07-04T20:46:14.580Z,3.60
2018-07-04T20:48:54.580Z,4.60
2018-07-04T20:51:34.479Z,3.70
2018-07-04T20:54:14.204Z,3.73
2018-07-04T20:56:54.078Z,3.60
2018-07-04T20:59:34.128Z,4.27
2018-07-04T21:02:14.009Z,4.43
2018-07-04T21:04:54.080Z,3.90
2018-07-04T21:07:33.857Z,4.07
2018-07-04T21:10:07.598Z,4.10
2018-07-04T21:12:47.366Z,3.83
2018-07-04T21:15:27.167Z,3.70
2018-07-04T21:18:07.143Z,3.60
2018-07-04T21:20:47.162Z,4.47
2018-07-04T21:23:26.828Z,4.43
2018-07-04T21:26:06.623Z,3.33
2018-07-04T21:28:46.356Z,3.80
2018-07-04T21:31:26.230Z,3.37
2018-07-04T21:34:06.109Z,2.80
2018-07-04T21:36:45.914Z,2.80
2018-07-04T21:39:25.585Z,3.53
2018-07-04T21:42:05.184Z,3.87
2018-07-04T21:44:44.901Z,2.90
2018-07-04T21:47:24.713Z,2.90
2018-07-04T21:50:04.577Z,2.90
2018-07-04T21:52:44.468Z,3.30
2018-07-04T21:55:24.291Z,3.17
2018-07-04T21:58:04.027Z,2.40
2018-07-04T22:00:43.912Z,3.23
2018-07-04T22:03:23.487Z,2.83
2018-07-04T22:06:03.420Z,2.60
2018-07-04T22:08:44.041Z,3.20
2018-07-04T22:11:23.754Z,2.73
2018-07-04T22:14:03.691Z,3.20
2018-07-04T22:16:43.632Z,2.87
2018-07-04T22:19:23.514Z,3.37
2018-07-04T22:22:03.247Z,3.37
2018-07-04T22:24:43.320Z,3.37
2018-07-04T22:27:23.097Z,3.70
2018-07-04T22:30:02.858Z,3.67
2018-07-04T22:32:43.280Z,3.57
2018-07-04T22:35:23.045Z,4.10
2018-07-04T22:38:02.793Z,4.27
2018-07-04T22:40:44.296Z,6.40
2018-07-04T22:43:24.144Z,4.20
2018-07-04T22:46:03.848Z,4.53
2018-07-04T22:48:43.634Z,4.67
2018-07-04T22:51:24.331Z,5.33
2018-07-04T22:54:04.112Z,4.63
2018-07-04T22:56:44.138Z,4.97
2018-07-04T22:59:24.122Z,7.43
2018-07-04T23:02:04.888Z,5.77
2018-07-04T23:04:44.696Z,5.80
2018-07-04T23:07:24.499Z,7.57
2018-07-04T23:10:04.398Z,6.53
2018-07-04T23:12:44.253Z,6.53
2018-07-04T23:15:23.980Z,5.57
2018-07-04T23:18:03.868Z,5.60
2018-07-04T23:20:44.739Z,6.10
2018-07-04T23:23:24.632Z,7.07
2018-07-04T23:26:04.550Z,5.77
2018-07-04T23:28:44.307Z,6.10
2018-07-04T23:31:24.129Z,7.43
2018-07-04T23:34:03.951Z,6.07
2018-07-04T23:36:45.042Z,7.07
2018-07-04T23:39:24.956Z,6.30
2018-07-04T23:42:04.711Z,5.97
2018-07-04T23:44:44.381Z,6.70
2018-07-04T23:47:24.296Z,5.87
2018-07-04T23:50:04.038Z,8.57
2018-07-04T23:52:44.014Z,6.00
2018-07-04T23:55:23.847Z,5.83
2018-07-04T23:58:03.587Z,7.30
